createdAt,value
2019-03-27T00:03:35.972Z,10.30
2019-03-27T00:08:40.712Z,9.86
2019-03-27T00:13:45.352Z,10.03
2019-03-27T00:18:49.993Z,9.45
2019-03-27T00:23:54.737Z,9.33
2019-03-27T00:28:59.370Z,9.33
2019-03-27T00:34:04.127Z,9.62
2019-03-27T00:39:08.751Z,9.45
2019-03-27T00:44:13.396Z,9.71
2019-03-27T00:49:18.144Z,9.17
2019-03-27T00:54:22.786Z,9.28
2019-03-27T00:59:27.427Z,9.62
2019-03-27T01:04:34.635Z,9.39
2019-03-27T01:09:39.372Z,9.41
2019-03-27T01:14:44.111Z,9.57
2019-03-27T01:19:48.751Z,9.48
2019-03-27T01:24:53.290Z,9.41
2019-03-27T01:29:57.822Z,9.89
2019-03-27T01:35:02.573Z,9.11
2019-03-27T01:40:07.309Z,9.37
2019-03-27T01:45:13.198Z,9.63
2019-03-27T01:50:17.822Z,9.27
2019-03-27T01:55:22.573Z,9.50
2019-03-27T02:00:27.208Z,9.81
2019-03-27T02:05:31.952Z,9.44
2019-03-27T02:10:36.694Z,9.32
2019-03-27T02:15:41.443Z,9.40
2019-03-27T02:20:46.133Z,9.56
2019-03-27T02:25:51.950Z,9.20
2019-03-27T02:30:56.693Z,9.27
2019-03-27T02:36:01.349Z,8.84
2019-03-27T02:41:05.972Z,8.81
2019-03-27T02:46:23.621Z,8.66
2019-03-27T02:51:17.097Z,8.84
2019-03-27T02:56:21.838Z,8.84
2019-03-27T03:01:26.575Z,9.53
2019-03-27T03:06:31.325Z,8.18
2019-03-27T03:11:36.070Z,9.32
2019-03-27T03:16:42.557Z,8.83
2019-03-27T03:21:46.990Z,8.22
2019-03-27T03:26:51.773Z,8.60
2019-03-27T03:31:57.656Z,8.47
2019-03-27T03:37:04.089Z,8.15
2019-03-27T03:42:09.763Z,7.76
2019-03-27T03:47:14.489Z,7.73
2019-03-27T03:52:19.549Z,7.78
2019-03-27T03:57:24.181Z,7.76
2019-03-27T04:02:29.030Z,7.50
2019-03-27T04:07:33.767Z,7.62
2019-03-27T04:12:38.537Z,7.76
2019-03-27T04:17:43.255Z,7.35
2019-03-27T04:22:48.003Z,7.17
2019-03-27T04:27:53.869Z,6.94
2019-03-27T04:32:58.859Z,6.34
2019-03-27T04:38:03.660Z,5.96
2019-03-27T04:43:08.325Z,6.42
2019-03-27T04:48:13.040Z,6.15
2019-03-27T04:53:17.787Z,6.53
2019-03-27T04:58:22.344Z,6.80
2019-03-27T05:03:27.065Z,7.86
2019-03-27T05:08:31.659Z,7.93
2019-03-27T05:13:36.467Z,10.28
2019-03-27T05:18:41.190Z,10.88
2019-03-27T05:23:45.934Z,11.76
2019-03-27T05:28:50.680Z,11.89
2019-03-27T05:33:55.269Z,9.71
2019-03-27T05:39:00.059Z,10.02
2019-03-27T05:44:04.803Z,9.83
2019-03-27T05:49:09.649Z,9.68
2019-03-27T05:54:14.395Z,9.48
2019-03-27T05:59:19.136Z,10.25
2019-03-27T06:04:23.878Z,10.19
2019-03-27T06:09:28.622Z,10.76
2019-03-27T06:14:33.366Z,11.18
2019-03-27T06:19:38.206Z,11.20
2019-03-27T06:24:42.951Z,11.55
2019-03-27T06:29:47.482Z,11.95
2019-03-27T06:34:52.231Z,10.78
2019-03-27T06:39:56.975Z,11.99
2019-03-27T06:45:01.821Z,12.42
2019-03-27T06:50:06.668Z,12.21
2019-03-27T06:55:12.343Z,12.51
2019-03-27T07:00:18.097Z,13.02
2019-03-27T07:05:22.840Z,12.75
2019-03-27T07:10:27.542Z,13.55
2019-03-27T07:15:35.458Z,13.60
2019-03-27T07:20:40.965Z,13.02
2019-03-27T07:25:46.803Z,13.95
2019-03-27T07:30:51.779Z,12.95
2019-03-27T07:35:56.424Z,14.01
2019-03-27T07:41:01.473Z,13.60
2019-03-27T07:46:06.113Z,14.27
2019-03-27T07:51:12.602Z,14.01
2019-03-27T07:56:17.338Z,14.26
2019-03-27T08:01:22.085Z,14.10
2019-03-27T08:06:26.824Z,13.75
2019-03-27T08:11:31.719Z,14.54
2019-03-27T08:16:36.618Z,14.70
2019-03-27T08:21:41.362Z,15.34
2019-03-27T08:26:45.994Z,15.61
2019-03-27T08:31:50.640Z,15.41
2019-03-27T08:36:55.513Z,15.53
2019-03-27T08:42:00.132Z,15.66
2019-03-27T08:47:04.978Z,16.15
2019-03-27T08:52:09.620Z,15.94
2019-03-27T08:57:14.361Z,15.60
2019-03-27T09:02:19.104Z,16.32
2019-03-27T09:07:23.851Z,16.96
2019-03-27T09:12:28.469Z,15.64
2019-03-27T09:17:33.134Z,16.84
2019-03-27T09:22:39.409Z,16.46
2019-03-27T09:27:44.149Z,15.85
2019-03-27T09:32:48.781Z,16.70
2019-03-27T09:37:53.534Z,16.57
2019-03-27T09:42:58.278Z,17.08
2019-03-27T09:48:03.127Z,17.69
2019-03-27T09:53:07.877Z,17.33
2019-03-27T09:58:12.612Z,17.37
2019-03-27T10:03:17.253Z,16.76
2019-03-27T10:08:21.895Z,16.96
2019-03-27T10:13:26.455Z,17.26
2019-03-27T10:18:31.176Z,17.42
2019-03-27T10:23:35.815Z,17.54
2019-03-27T10:28:40.560Z,17.05
2019-03-27T10:33:45.310Z,17.61
2019-03-27T10:38:50.050Z,17.41
2019-03-27T10:43:54.691Z,18.09
2019-03-27T10:48:59.446Z,18.02
2019-03-27T10:54:04.176Z,17.21
2019-03-27T10:59:08.921Z,17.33
2019-03-27T11:04:13.681Z,17.55
2019-03-27T11:09:18.404Z,17.09
2019-03-27T11:14:36.637Z,17.25
2019-03-27T11:19:29.226Z,17.32
2019-03-27T11:24:34.996Z,18.13
2019-03-27T11:29:39.638Z,18.82
2019-03-27T11:34:44.584Z,18.49
2019-03-27T11:39:49.209Z,18.57
2019-03-27T11:44:53.972Z,18.31
2019-03-27T11:49:58.621Z,18.38
2019-03-27T11:55:03.366Z,18.04
2019-03-27T12:00:09.640Z,18.60
2019-03-27T12:05:14.375Z,18.07
2019-03-27T12:10:19.224Z,18.26
2019-03-27T12:15:38.504Z,18.82
2019-03-27T12:20:43.250Z,18.87
2019-03-27T12:25:47.995Z,18.50
2019-03-27T12:30:52.708Z,18.11
2019-03-27T12:35:57.380Z,18.06
2019-03-27T12:41:02.123Z,18.81
2019-03-27T12:46:08.304Z,18.42
2019-03-27T12:51:13.508Z,18.33
2019-03-27T12:56:18.296Z,18.56
2019-03-27T13:01:22.939Z,18.85
2019-03-27T13:06:27.690Z,18.90
2019-03-27T13:11:32.328Z,18.27
2019-03-27T13:16:36.872Z,18.96
2019-03-27T13:21:43.248Z,17.68
2019-03-27T13:26:48.089Z,17.03
2019-03-27T13:31:52.833Z,16.84
2019-03-27T13:36:58.580Z,16.44
2019-03-27T13:42:03.250Z,17.52
2019-03-27T13:47:08.312Z,17.70
2019-03-27T13:52:14.702Z,17.81
2019-03-27T13:57:19.518Z,17.24
2019-03-27T14:02:24.269Z,16.92
2019-03-27T14:07:28.919Z,17.58
2019-03-27T14:12:33.755Z,17.60
2019-03-27T14:17:38.497Z,17.77
2019-03-27T14:22:43.338Z,18.40
2019-03-27T14:27:48.081Z,18.13
2019-03-27T14:32:52.897Z,17.87
2019-03-27T14:38:00.065Z,17.65
2019-03-27T14:43:05.284Z,17.76
2019-03-27T14:48:10.127Z,17.04
2019-03-27T14:53:14.884Z,16.60
2019-03-27T14:58:19.518Z,16.92
2019-03-27T15:03:24.358Z,17.27
2019-03-27T15:08:29.104Z,16.29
2019-03-27T15:13:33.830Z,16.41
2019-03-27T15:18:38.875Z,16.56
2019-03-27T15:23:43.641Z,16.83
2019-03-27T15:28:50.797Z,16.59
2019-03-27T15:33:54.560Z,15.81
2019-03-27T15:38:59.304Z,16.40
2019-03-27T15:44:03.950Z,16.92
2019-03-27T15:49:08.703Z,16.02
2019-03-27T15:54:13.637Z,15.60
2019-03-27T15:59:18.503Z,15.37
2019-03-27T16:04:23.225Z,15.54
2019-03-27T16:09:27.973Z,15.88
2019-03-27T16:14:32.721Z,15.71
2019-03-27T16:19:37.585Z,15.28
2019-03-27T16:24:42.409Z,15.44
2019-03-27T16:29:48.339Z,14.78
2019-03-27T16:34:54.154Z,14.95
2019-03-27T16:39:58.994Z,15.15
2019-03-27T16:45:05.172Z,14.38
2019-03-27T16:50:10.242Z,13.78
2019-03-27T16:55:14.962Z,13.37
2019-03-27T17:00:20.734Z,13.43
2019-03-27T17:05:27.213Z,13.43
2019-03-27T17:10:31.957Z,13.32
2019-03-27T17:15:37.178Z,13.16
2019-03-27T17:20:41.975Z,13.81
2019-03-27T17:25:46.921Z,13.82
2019-03-27T17:30:51.760Z,13.43
2019-03-27T17:35:58.823Z,13.32
2019-03-27T17:41:05.563Z,13.79
2019-03-27T17:46:12.360Z,13.17
2019-03-27T17:51:20.043Z,12.33
2019-03-27T17:56:27.500Z,12.51
2019-03-27T18:01:34.361Z,12.62
2019-03-27T18:06:40.107Z,12.62
2019-03-27T18:11:45.115Z,12.43
2019-03-27T18:16:52.238Z,12.85
2019-03-27T18:22:07.061Z,12.14
2019-03-27T18:27:04.263Z,12.16
2019-03-27T18:32:12.887Z,11.76
2019-03-27T18:37:17.784Z,10.96
2019-03-27T18:42:22.532Z,11.37
2019-03-27T18:47:27.272Z,11.26
2019-03-27T18:52:32.008Z,10.69
2019-03-27T18:57:36.807Z,10.80
2019-03-27T19:02:41.495Z,11.35
2019-03-27T19:07:46.236Z,11.54
2019-03-27T19:12:51.016Z,10.99
2019-03-27T19:17:56.039Z,10.37
2019-03-27T19:23:01.349Z,10.52
2019-03-27T19:28:06.041Z,10.26
2019-03-27T19:33:10.778Z,9.96
2019-03-27T19:38:15.818Z,9.28
2019-03-27T19:43:20.673Z,9.82
2019-03-27T19:48:25.453Z,9.69
2019-03-27T19:53:30.257Z,9.63
2019-03-27T19:58:34.998Z,9.64
2019-03-27T20:03:40.664Z,8.79
2019-03-27T20:08:45.637Z,8.76
2019-03-27T20:13:51.692Z,8.77
2019-03-27T20:18:56.507Z,9.15
2019-03-27T20:24:01.824Z,8.86
2019-03-27T20:29:06.634Z,8.90
2019-03-27T20:34:11.380Z,8.95
2019-03-27T20:39:16.014Z,8.80
2019-03-27T20:44:20.977Z,8.53
2019-03-27T20:49:25.605Z,8.04
2019-03-27T20:54:30.577Z,8.28
2019-03-27T20:59:35.505Z,8.11
2019-03-27T21:04:40.342Z,8.02
2019-03-27T21:09:45.008Z,7.29
2019-03-27T21:14:49.868Z,7.57
2019-03-27T21:19:54.882Z,7.86
2019-03-27T21:25:08.740Z,7.77
2019-03-27T21:30:08.730Z,6.96
2019-03-27T21:35:15.559Z,7.32
2019-03-27T21:40:20.506Z,7.39
2019-03-27T21:45:25.353Z,7.17
2019-03-27T21:50:30.230Z,7.54
2019-03-27T21:55:42.528Z,7.04
2019-03-27T22:00:41.321Z,5.75
2019-03-27T22:05:46.192Z,6.50
2019-03-27T22:10:51.118Z,7.06
2019-03-27T22:15:55.752Z,7.45
2019-03-27T22:21:00.653Z,6.26
2019-03-27T22:26:05.443Z,6.07
2019-03-27T22:31:10.302Z,5.88
2019-03-27T22:36:15.036Z,6.03
2019-03-27T22:41:19.884Z,6.18
2019-03-27T22:46:24.576Z,5.80
2019-03-27T22:51:29.256Z,5.71
2019-03-27T22:56:34.002Z,4.58
2019-03-27T23:01:45.276Z,5.63
2019-03-27T23:06:50.143Z,5.08
2019-03-27T23:11:54.989Z,5.28
2019-03-27T23:16:59.907Z,4.75
2019-03-27T23:22:04.783Z,5.59
2019-03-27T23:27:09.520Z,5.87
2019-03-27T23:32:14.373Z,5.61
2019-03-27T23:37:19.112Z,5.53
2019-03-27T23:42:24.013Z,4.98
2019-03-27T23:47:28.694Z,5.37
2019-03-27T23:52:33.643Z,5.61
2019-03-27T23:57:38.282Z,5.84
